Aérodrome :
LOGIN :

S'inscrire | Disclaimer

   EN    FR    IT 

 










Légende :    VFR   VFR Marginal   IFR   IFR Intensif   IFR Très Intensif
Visi : 
Plafond : 
>= 8 km
>= 3000ft
5 à 8 km
1000 à 3000 ft
1500m à 5 km
500 à 1000 ft
800 à 1500m
200 à 500 ft
< 800m
< 200 ft
Symboles :   Orages  Brouillard  Fortes neiges  Fortes précipitations  Vent > 20 kt
SIGMETs :   Divers  Orages  Givrage  Turbulence  Onde Orograph.  Cendres Volcan.







- Altitude de l'aérodrome : 203 ft
- Code IATA : XMJ
- Voir les cartes d'approche


LFBM - Mont-De-Marsan

DERNIER METAR :
  • 172300Z AUTO VRB02KT 0900 0550 R27/1200D FG NSC 02/02 Q1021 BECMG 5000 NSW

METARs EXPIRÉS :
  • 172230Z AUTO 22002KT 0600 0500 R27/0650D FG NSC 02/02 Q1021 BECMG 5000 NSW
  • 172200Z AUTO 00000KT 0450 0300 R27/0700D FG NSC 02/02 Q1021 BECMG 5000 NSW
  • 172130Z AUTO 00000KT 0800 0550 R27/1000U FG NSC 02/02 Q1021 BECMG 5000 NSW
  • 172100Z AUTO 19001KT 0900 0800 R27/1000N FG FEW002 02/02 Q1021 BECMG 5000 NSW
  • 172030Z AUTO 00000KT 0600 0500 R27/1000D FG NSC 02/02 Q1021 BECMG 5000 NSW

TAF TAF LFBM
Valide du 17 à 21h jusqu'au 18 à 21h UTC


172000Z 1721/1821 VRB03KT 5000 SCT035
TEMPO 1801/1806 0800 FG NSC
BECMG 1806/1808 24008KT 9999 BKN025
TEMPO 1814/1821 RA BKN015 OVC040
Pas de NOTAMs connus pour ce terrain.



MET'MAP, la Météo Aéronautique d'un coup d'oeil ! - Copyright ORBIFLY Décembre 2007 - Disclaimer

ORBIFLY MET'MAP TEAM :

Programmation & Développement : Alexandra Zaïnal
Conception & Développement : Baudouin d'Aumeries
Co-Programmation & Développement : Marc-Olivier Méhu
Soutien technique & logistique : Manuel Goepfert

Contact : metmap@orbifly.com




SOURCES & CREDITS :

   NOAA